Time;durP1;ratioP1;P1;durP2;ratioP2;P2;SDS_P1;SDS_P2;PMS_P1;PMS_P2;Temp;Humidity;BMP_temperature;BMP_pressure;BME280_temperature;BME280_humidity;BME280_pressure;Samples;Min_cycle;Max_cycle;Signal;HPM_P1;HPM_P2
2023/01/19 00:00:18;;;;;;;10.83;7.80;;;;;;;4.45;51.28;96728.34;8316733;28;20229;-73
2023/01/19 00:04:23;;;;;;;10.33;7.80;;;;;;;4.46;50.80;96722.34;8316831;28;20318;-73
2023/01/19 00:08:26;;;;;;;13.50;8.40;;;;;;;4.40;51.06;96720.00;8316604;28;20241;-72
2023/01/19 00:12:28;;;;;;;14.70;8.10;;;;;;;4.34;51.21;96730.50;8316589;28;20233;-73
2023/01/19 00:16:31;;;;;;;11.80;8.00;;;;;;;4.25;50.90;96729.97;8316405;28;20230;-73
2023/01/19 00:20:36;;;;;;;10.33;7.90;;;;;;;4.09;50.70;96732.31;8316223;28;20325;-73
2023/01/19 00:24:38;;;;;;;11.43;8.77;;;;;;;4.10;51.15;96748.50;8316042;28;20241;-73
2023/01/19 00:28:41;;;;;;;10.83;7.90;;;;;;;4.19;50.45;96755.00;8315531;28;20390;-73
2023/01/19 00:32:44;;;;;;;12.20;7.77;;;;;;;4.11;50.88;96761.25;8315934;28;20226;-73
2023/01/19 00:36:48;;;;;;;11.83;8.37;;;;;;;3.97;51.08;96750.69;8315849;28;20268;-73
2023/01/19 00:40:51;;;;;;;11.20;8.50;;;;;;;4.03;51.04;96757.31;8315554;28;20521;-73
2023/01/19 00:44:54;;;;;;;11.57;9.10;;;;;;;4.06;50.85;96765.72;8315375;28;20222;-73
2023/01/19 00:48:57;;;;;;;9.97;8.80;;;;;;;4.10;50.75;96757.00;8315261;28;20533;-73
2023/01/19 00:53:01;;;;;;;14.83;10.13;;;;;;;3.97;50.64;96766.06;8315311;28;20237;-74
2023/01/19 00:57:05;;;;;;;11.70;9.43;;;;;;;4.01;50.87;96765.03;8314909;28;20245;-73
2023/01/19 01:01:08;;;;;;;12.10;8.67;;;;;;;3.87;50.91;96759.63;8314960;28;20245;-73
2023/01/19 01:05:11;;;;;;;12.53;9.10;;;;;;;3.95;50.32;96767.84;8314184;28;20229;-73
2023/01/19 01:09:16;;;;;;;12.83;9.70;;;;;;;3.85;50.79;96767.34;8314334;28;20237;-73
2023/01/19 01:13:19;;;;;;;10.43;9.03;;;;;;;3.88;50.61;96777.50;8314735;28;20225;-73
2023/01/19 01:17:26;;;;;;;12.53;9.40;;;;;;;3.83;50.61;96786.22;8314761;28;20226;-73
2023/01/19 01:21:29;;;;;;;15.43;9.70;;;;;;;3.85;50.81;96787.00;8314315;28;20238;-73
2023/01/19 01:25:36;;;;;;;10.00;8.90;;;;;;;3.87;50.34;96787.78;8314321;28;20251;-73
2023/01/19 01:29:40;;;;;;;12.17;9.30;;;;;;;3.76;50.64;96788.16;8313990;28;20278;-73
2023/01/19 01:33:42;;;;;;;15.17;9.10;;;;;;;3.73;50.55;96793.38;8313600;28;20237;-73
2023/01/19 01:37:45;;;;;;;13.83;10.10;;;;;;;3.73;50.61;96793.38;8313984;28;20525;-73
2023/01/19 01:41:49;;;;;;;13.20;9.93;;;;;;;3.42;50.43;96793.63;8313854;28;20245;-73
2023/01/19 01:45:55;;;;;;;11.37;9.50;;;;;;;3.56;50.44;96794.00;8313736;28;20226;-73
2023/01/19 01:50:03;;;;;;;12.23;9.43;;;;;;;3.61;49.97;96799.78;8313704;28;20237;-73
2023/01/19 01:54:13;;;;;;;12.07;9.17;;;;;;;3.37;50.63;96800.63;8313500;28;20226;-73
2023/01/19 01:58:17;;;;;;;14.13;10.30;;;;;;;3.36;50.37;96804.09;8313533;28;20225;-73
2023/01/19 02:15:24;;;;;;;14.17;9.60;;;;;;;3.36;49.61;96811.78;8312855;28;20229;-73
2023/01/19 02:19:31;;;;;;;12.10;9.77;;;;;;;3.33;50.07;96807.56;8313175;28;20246;-73
2023/01/19 02:23:41;;;;;;;11.20;9.50;;;;;;;3.12;50.01;96797.19;8313228;28;20225;-73
2023/01/19 02:27:44;;;;;;;12.80;9.93;;;;;;;2.85;50.52;96783.56;8312552;28;20218;-73
2023/01/19 02:31:46;;;;;;;10.87;9.70;;;;;;;3.03;50.50;96810.28;8312869;28;20229;-73
2023/01/19 02:35:51;;;;;;;12.63;9.57;;;;;;;3.25;50.15;96807.84;8312794;28;20376;-72
2023/01/19 02:39:57;;;;;;;12.97;9.80;;;;;;;3.27;50.32;96811.16;8312891;28;20556;-72
2023/01/19 02:44:01;;;;;;;13.17;10.03;;;;;;;3.26;50.43;96812.06;8312825;28;20415;-72
2023/01/19 02:48:04;;;;;;;11.40;9.63;;;;;;;3.19;50.84;96807.22;8312579;28;20229;-73
2023/01/19 02:52:11;;;;;;;12.87;10.03;;;;;;;3.32;49.96;96805.91;8312500;28;20430;-72
2023/01/19 02:56:33;;;;;;;12.03;9.67;;;;;;;3.23;50.03;96799.38;8312600;28;20222;-72
2023/01/19 03:00:43;;;;;;;10.17;8.77;;;;;;;3.30;50.19;96803.41;8312346;28;20236;-72
2023/01/19 03:04:58;;;;;;;12.90;9.40;;;;;;;3.31;50.08;96801.66;8312288;28;20538;-72
2023/01/19 03:09:03;;;;;;;11.63;8.80;;;;;;;3.20;50.27;96806.31;8312084;28;20247;-72
2023/01/19 03:13:11;;;;;;;10.97;8.67;;;;;;;3.19;50.59;96809.78;8312280;28;20238;-72
2023/01/19 03:17:16;;;;;;;10.47;8.93;;;;;;;3.27;50.35;96812.91;8312227;28;20237;-72
2023/01/19 03:21:20;;;;;;;11.97;9.60;;;;;;;3.12;50.43;96811.69;8312211;28;20505;-72
2023/01/19 03:25:23;;;;;;;10.30;9.00;;;;;;;3.19;50.55;96815.72;8312296;28;20548;-73
2023/01/19 03:29:30;;;;;;;10.67;9.17;;;;;;;3.13;50.27;96815.94;8316982;28;20245;-73
2023/01/19 03:33:36;;;;;;;13.17;9.03;;;;;;;3.11;49.71;96825.38;8317845;28;20222;-73
2023/01/19 03:37:42;;;;;;;13.63;9.80;;;;;;;2.99;50.40;96831.72;8317757;28;20226;-73
2023/01/19 03:41:47;;;;;;;14.70;9.23;;;;;;;3.09;49.67;96839.94;8317319;28;20218;-72
2023/01/19 03:45:53;;;;;;;12.83;9.37;;;;;;;2.92;50.65;96848.16;8317475;28;20238;-73
2023/01/19 03:49:57;;;;;;;10.87;9.50;;;;;;;2.72;51.09;96835.97;8317233;28;20238;-74
2023/01/19 03:54:00;;;;;;;14.00;9.80;;;;;;;3.05;50.32;96851.16;8317188;28;20302;-72
2023/01/19 03:58:03;;;;;;;11.07;9.13;;;;;;;3.05;50.40;96848.59;8317100;28;20529;-73
2023/01/19 04:02:07;;;;;;;14.03;10.47;;;;;;;3.06;50.65;96850.25;8316812;28;20233;-73
2023/01/19 04:06:10;;;;;;;12.40;10.00;;;;;;;2.86;50.14;96810.00;8316438;28;20254;-73
2023/01/19 04:10:14;;;;;;;14.07;10.47;;;;;;;2.87;50.97;96853.41;8316990;28;20238;-73
2023/01/19 04:14:17;;;;;;;12.37;10.00;;;;;;;3.00;50.59;96858.13;8316548;28;20403;-73
2023/01/19 04:18:21;;;;;;;14.70;10.53;;;;;;;2.92;50.49;96863.50;8316574;28;20245;-74
2023/01/19 04:22:24;;;;;;;14.47;10.60;;;;;;;2.52;51.94;96869.84;8316449;28;20411;-73
2023/01/19 04:26:27;;;;;;;14.73;10.90;;;;;;;2.82;50.71;96864.66;8316469;28;20226;-73
2023/01/19 04:30:30;;;;;;;14.83;11.53;;;;;;;2.41;51.20;96859.91;8315991;28;20241;-74
2023/01/19 04:34:34;;;;;;;13.33;10.43;;;;;;;2.80;50.83;96861.31;8316084;28;20225;-73
2023/01/19 04:38:37;;;;;;;16.07;11.17;;;;;;;2.72;50.66;96861.53;8315050;28;20226;-75
2023/01/19 04:42:43;;;;;;;16.97;11.03;;;;;;;2.82;50.75;96859.53;8316146;28;20236;-73
2023/01/19 04:46:46;;;;;;;14.53;11.33;;;;;;;2.45;51.14;96863.22;8315229;28;20233;-73
2023/01/19 04:50:52;;;;;;;15.13;11.27;;;;;;;2.46;51.01;96865.72;8315779;28;20461;-72
2023/01/19 04:54:55;;;;;;;14.67;11.07;;;;;;;2.68;49.98;96860.78;8315639;28;20230;-74
2023/01/19 04:58:58;;;;;;;13.73;11.40;;;;;;;2.45;50.88;96864.06;8315142;28;20230;-73
2023/01/19 05:03:01;;;;;;;14.60;11.17;;;;;;;2.76;50.38;96867.41;8316621;28;20257;-73
2023/01/19 05:07:05;;;;;;;14.53;11.47;;;;;;;2.72;50.19;96864.09;8316996;28;20230;-72
2023/01/19 05:11:08;;;;;;;16.40;11.77;;;;;;;2.75;50.88;96866.56;8319231;28;20234;-72
2023/01/19 05:15:11;;;;;;;13.23;10.83;;;;;;;2.79;50.50;96867.31;8319957;28;20419;-73
2023/01/19 05:19:14;;;;;;;15.93;11.93;;;;;;;2.49;50.93;96875.03;8320029;28;20242;-72
2023/01/19 05:23:19;;;;;;;14.87;11.30;;;;;;;2.83;50.79;96881.69;8318464;28;20233;-73
2023/01/19 05:27:22;;;;;;;15.00;11.63;;;;;;;2.76;50.75;96875.94;8317983;28;20260;-73
2023/01/19 05:31:24;;;;;;;13.73;12.07;;;;;;;2.79;51.02;96875.81;8314086;28;20230;-73
2023/01/19 05:35:27;;;;;;;15.73;11.80;;;;;;;2.57;51.10;96880.75;8313958;28;20234;-73
2023/01/19 05:39:39;;;;;;;17.07;13.77;;;;;;;2.50;50.73;96881.81;8314260;28;20226;-73
2023/01/19 05:43:42;;;;;;;16.10;12.30;;;;;;;2.65;49.96;96881.34;8313530;28;20229;-72
2023/01/19 05:47:45;;;;;;;15.97;12.10;;;;;;;2.51;51.09;96879.22;8313696;28;20226;-72
2023/01/19 05:51:48;;;;;;;15.33;12.07;;;;;;;2.63;50.15;96888.25;8313251;28;20245;-73
2023/01/19 05:55:52;;;;;;;15.33;12.33;;;;;;;2.47;51.04;96882.72;8313630;28;20241;-73
2023/01/19 05:59:55;;;;;;;15.50;12.30;;;;;;;2.38;51.34;96888.13;8313668;28;20226;-73
2023/01/19 06:03:57;;;;;;;14.97;11.50;;;;;;;2.56;50.99;96891.03;8313752;28;20426;-73
2023/01/19 06:08:00;;;;;;;14.57;11.87;;;;;;;2.64;50.58;96899.28;8313521;28;20242;-73
2023/01/19 06:12:05;;;;;;;18.60;14.23;;;;;;;2.52;51.29;96901.31;8313897;28;20249;-71
2023/01/19 06:16:08;;;;;;;15.60;12.07;;;;;;;2.62;50.76;96907.00;8313056;28;20226;-71
2023/01/19 06:20:13;;;;;;;16.53;12.33;;;;;;;2.43;51.26;96903.31;8313020;28;20337;-73
2023/01/19 06:24:16;;;;;;;14.30;12.07;;;;;;;2.36;50.65;96900.09;8313049;28;20297;-72
2023/01/19 06:28:20;;;;;;;16.90;12.83;;;;;;;1.97;52.18;96897.78;8313145;28;20225;-71
2023/01/19 06:32:23;;;;;;;16.30;12.90;;;;;;;2.47;50.99;96898.06;8313380;28;20221;-72
2023/01/19 06:36:25;;;;;;;15.37;11.90;;;;;;;2.27;50.96;96869.72;8313429;28;20234;-72
2023/01/19 06:40:28;;;;;;;14.13;11.73;;;;;;;2.64;50.77;96910.34;8312829;28;20226;-72
2023/01/19 06:44:32;;;;;;;18.07;12.20;;;;;;;2.65;50.73;96912.03;8312600;28;20229;-71
2023/01/19 06:48:35;;;;;;;14.67;12.73;;;;;;;2.64;50.58;96905.25;8312662;28;20234;-71
2023/01/19 06:52:41;;;;;;;15.03;13.07;;;;;;;2.73;50.38;96927.97;8312736;28;20297;-72
2023/01/19 06:56:44;;;;;;;17.30;12.17;;;;;;;2.60;50.97;96926.66;8312094;28;20226;-71
2023/01/19 07:00:49;;;;;;;16.07;11.27;;;;;;;2.46;51.18;96924.50;8312697;28;20297;-72
2023/01/19 07:04:52;;;;;;;13.90;11.00;;;;;;;2.69;50.83;96931.50;8318619;28;20233;-71
2023/01/19 07:08:55;;;;;;;13.40;11.57;;;;;;;2.73;50.30;96930.53;8318565;28;20522;-73
2023/01/19 07:12:57;;;;;;;14.90;11.13;;;;;;;1.99;50.88;96846.66;8318175;28;20234;-73
2023/01/19 07:17:02;;;;;;;13.47;11.07;;;;;;;2.59;50.94;96950.56;8318298;28;20237;-72
2023/01/19 07:21:06;;;;;;;14.40;11.63;;;;;;;2.73;50.71;96939.94;8318022;28;20317;-72
2023/01/19 07:25:09;;;;;;;17.10;12.93;;;;;;;2.72;50.27;96915.22;8318425;28;20233;-72
2023/01/19 07:29:12;;;;;;;15.50;12.47;;;;;;;2.59;50.59;96948.00;8318054;28;20230;-72
2023/01/19 07:33:16;;;;;;;15.93;12.17;;;;;;;2.78;50.54;96950.00;8317724;28;20226;-72
2023/01/19 07:37:19;;;;;;;13.70;11.83;;;;;;;2.72;50.09;96936.53;8317794;28;20237;-72
2023/01/19 07:41:22;;;;;;;16.17;11.83;;;;;;;2.78;50.64;96948.31;8317738;28;20232;-72
2023/01/19 07:45:26;;;;;;;14.97;11.60;;;;;;;3.00;54.00;96948.50;8317347;28;20242;-72
2023/01/19 07:49:31;;;;;;;17.03;12.57;;;;;;;7.69;75.96;96956.59;8316777;28;20245;-72
2023/01/19 07:53:34;;;;;;;16.07;13.13;;;;;;;6.34;48.66;96955.94;8316703;28;20226;-74
2023/01/19 07:57:37;;;;;;;18.70;14.30;;;;;;;4.25;46.81;96959.81;8317286;28;20624;-73
2023/01/19 08:01:40;;;;;;;17.30;14.77;;;;;;;4.33;48.06;96962.09;8316689;28;20238;-73
2023/01/19 08:05:44;;;;;;;15.73;14.10;;;;;;;4.22;48.29;96950.47;8316768;28;20238;-73
2023/01/19 08:09:50;;;;;;;14.97;13.37;;;;;;;4.49;47.81;96984.56;8317618;28;20226;-72
2023/01/19 08:13:53;;;;;;;16.50;14.23;;;;;;;4.43;46.86;96981.38;8317375;28;20226;-73
2023/01/19 08:17:56;;;;;;;14.67;13.03;;;;;;;3.79;48.65;96982.69;8317864;28;20536;-73
2023/01/19 08:22:04;;;;;;;16.70;13.33;;;;;;;3.72;49.37;96988.91;8316442;28;20233;-72
2023/01/19 08:26:18;;;;;;;17.33;12.83;;;;;;;3.69;49.55;96997.53;8316419;28;20533;-72
2023/01/19 08:30:21;;;;;;;20.43;16.10;;;;;;;3.53;50.54;96991.22;8316687;28;20226;-73
2023/01/19 08:34:24;;;;;;;19.10;14.20;;;;;;;3.69;50.70;96989.84;8316512;28;20570;-73
2023/01/19 08:38:29;;;;;;;20.13;15.27;;;;;;;3.62;51.10;96996.06;8316233;28;20226;-74
2023/01/19 08:42:32;;;;;;;18.23;13.63;;;;;;;3.87;50.90;96996.09;8315863;28;20230;-74
2023/01/19 08:46:35;;;;;;;15.23;12.80;;;;;;;4.12;50.99;96997.81;8315603;28;20230;-74
2023/01/19 08:50:37;;;;;;;13.27;10.77;;;;;;;4.20;51.27;96995.81;8315919;28;20285;-73
2023/01/19 08:54:42;;;;;;;12.53;7.97;;;;;;;4.49;50.82;97009.34;8315339;28;20233;-73
2023/01/19 08:58:45;;;;;;;8.00;6.67;;;;;;;5.03;50.20;97004.88;8314867;28;20218;-73
2023/01/19 09:03:06;;;;;;;6.30;5.70;;;;;;;4.80;50.31;97009.13;8315269;28;20536;-73
2023/01/19 09:07:08;;;;;;;6.93;5.33;;;;;;;5.53;49.64;97020.03;8314672;28;20226;-74
2023/01/19 09:11:16;;;;;;;7.20;6.10;;;;;;;5.45;49.77;97029.78;8314956;28;20241;-72
2023/01/19 09:15:18;;;;;;;6.73;5.60;;;;;;;5.58;49.13;97031.00;8314916;28;20228;-73
2023/01/19 09:19:21;;;;;;;8.63;5.80;;;;;;;6.05;47.65;97020.56;8314661;28;20257;-73
2023/01/19 09:23:24;;;;;;;8.63;5.70;;;;;;;5.65;48.06;97029.84;8313932;28;20234;-73
2023/01/19 09:27:29;;;;;;;6.53;5.93;;;;;;;5.62;48.71;96994.00;8314280;28;20501;-73
2023/01/19 09:31:31;;;;;;;6.50;5.63;;;;;;;6.05;48.58;97024.84;8314377;28;20230;-73
2023/01/19 09:35:35;;;;;;;8.87;5.90;;;;;;;5.83;49.00;97033.41;8314051;28;20230;-73
2023/01/19 09:39:37;;;;;;;6.47;5.40;;;;;;;5.60;49.52;97042.03;8314273;28;20230;-73
2023/01/19 09:43:46;;;;;;;5.80;5.23;;;;;;;5.53;50.08;97042.34;8313854;28;20237;-73
2023/01/19 09:47:49;;;;;;;6.77;5.40;;;;;;;5.40;49.91;97042.78;8313339;28;20240;-73
2023/01/19 09:51:52;;;;;;;8.30;5.80;;;;;;;5.50;49.43;97043.28;8313518;28;20539;-73
2023/01/19 09:55:55;;;;;;;6.00;5.40;;;;;;;5.53;50.07;97044.91;8313471;28;20233;-73
2023/01/19 09:59:59;;;;;;;5.80;5.23;;;;;;;5.14;49.62;97032.66;8313463;28;20247;-73
2023/01/19 10:04:32;;;;;;;6.00;5.03;;;;;;;4.76;50.85;97042.59;8313124;28;20232;-74
2023/01/19 10:08:39;;;;;;;5.60;5.10;;;;;;;5.37;50.23;97048.06;8312827;28;20257;-74
2023/01/19 10:12:52;;;;;;;5.47;4.97;;;;;;;5.49;49.88;97045.00;8312650;28;20229;-74
2023/01/19 10:17:01;;;;;;;6.57;5.17;;;;;;;5.46;49.47;97044.28;8313019;28;20229;-73
2023/01/19 10:21:06;;;;;;;6.53;5.57;;;;;;;5.08;49.85;97036.31;8312951;28;20233;-74
2023/01/19 10:25:15;;;;;;;6.00;5.40;;;;;;;5.19;50.28;97010.25;8312994;28;20227;-73
2023/01/19 10:29:22;;;;;;;8.23;5.30;;;;;;;7.46;76.58;97020.38;8313019;28;20336;-73
2023/01/19 10:33:27;;;;;;;8.50;4.50;;;;;;;8.87;56.61;97033.25;8312176;28;20248;-73
2023/01/19 10:37:31;;;;;;;5.37;4.57;;;;;;;6.89;47.45;97038.41;8317448;28;20541;-73
2023/01/19 10:41:40;;;;;;;5.00;4.50;;;;;;;6.33;48.29;97016.81;8319163;28;20303;-74
2023/01/19 10:45:43;;;;;;;5.20;4.77;;;;;;;5.71;49.05;97041.59;8318508;28;20233;-74
2023/01/19 10:49:48;;;;;;;6.60;4.60;;;;;;;5.40;48.92;97008.59;8318697;28;20230;-74
2023/01/19 10:53:56;;;;;;;5.83;5.23;;;;;;;6.04;48.71;97041.19;8318941;28;20222;-74
2023/01/19 10:57:59;;;;;;;6.23;5.63;;;;;;;5.92;49.07;97034.78;8318797;28;20226;-74
2023/01/19 11:02:04;;;;;;;5.10;4.60;;;;;;;5.51;49.41;97031.28;8318275;28;20229;-74
2023/01/19 11:06:25;;;;;;;5.03;4.57;;;;;;;5.77;48.75;97020.81;8317943;28;20253;-73
2023/01/19 11:10:29;;;;;;;6.13;5.07;;;;;;;5.65;49.78;97029.00;8318398;28;20271;-75
2023/01/19 11:14:32;;;;;;;6.60;4.83;;;;;;;5.39;49.06;96992.34;8318365;28;20249;-74
2023/01/19 11:18:38;;;;;;;4.73;4.33;;;;;;;5.54;48.91;97026.88;8318081;28;20227;-73
2023/01/19 11:22:42;;;;;;;6.90;4.53;;;;;;;5.86;48.32;97020.44;8317738;28;20222;-74
2023/01/19 11:26:47;;;;;;;9.57;5.50;;;;;;;5.81;48.70;97024.94;8317218;28;20231;-74
2023/01/19 11:30:58;;;;;;;6.27;5.10;;;;;;;5.76;48.40;97006.28;8317398;28;20226;-74
2023/01/19 11:35:02;;;;;;;6.87;4.90;;;;;;;5.78;49.02;97009.63;8317313;28;20242;-75
2023/01/19 11:39:22;;;;;;;5.67;4.57;;;;;;;5.68;48.47;97014.31;8317421;28;20226;-73
2023/01/19 11:43:28;;;;;;;6.53;4.67;;;;;;;5.79;48.65;97019.03;8317234;28;20312;-73
2023/01/19 11:47:51;;;;;;;5.00;4.47;;;;;;;5.55;49.10;96978.91;8316369;28;20218;-75
2023/01/19 11:51:59;;;;;;;5.33;4.17;;;;;;;5.51;48.70;96955.06;8317076;28;20249;-75
2023/01/19 11:56:06;;;;;;;5.40;4.47;;;;;;;5.77;48.67;97012.25;8317092;28;20226;-74
2023/01/19 12:00:22;;;;;;;5.77;5.17;;;;;;;5.64;49.16;97015.31;8316747;28;20222;-75
2023/01/19 12:04:28;;;;;;;7.17;5.80;;;;;;;5.80;49.95;97001.88;8316451;28;20230;-76
2023/01/19 12:08:34;;;;;;;6.17;4.40;;;;;;;5.76;49.56;97010.59;8316375;28;20234;-75
2023/01/19 12:12:40;;;;;;;5.07;3.93;;;;;;;5.72;49.48;97014.19;8316067;28;20247;-75
2023/01/19 12:16:43;;;;;;;4.17;3.77;;;;;;;5.77;49.59;97017.38;8315907;28;20226;-75
2023/01/19 12:20:49;;;;;;;3.53;3.23;;;;;;;5.40;49.19;97021.41;8315947;28;20495;-75
2023/01/19 12:24:55;;;;;;;3.43;3.13;;;;;;;5.26;49.43;97015.09;8315630;28;20224;-74
2023/01/19 12:29:03;;;;;;;3.67;3.00;;;;;;;5.46;48.50;97013.47;8315757;28;20494;-75
2023/01/19 12:33:23;;;;;;;4.13;2.97;;;;;;;5.50;47.85;97009.88;8315638;28;20230;-74
2023/01/19 12:37:36;;;;;;;3.47;3.17;;;;;;;5.81;47.60;97006.13;8315764;28;20225;-75
2023/01/19 12:41:40;;;;;;;5.07;4.00;;;;;;;5.77;48.29;96999.41;8315321;28;20514;-75
2023/01/19 12:45:46;;;;;;;3.33;2.90;;;;;;;5.78;48.18;97007.06;8314891;28;20218;-75
2023/01/19 12:49:51;;;;;;;3.17;2.87;;;;;;;5.90;47.63;97005.72;8315075;28;20226;-75
2023/01/19 12:53:58;;;;;;;3.80;3.40;;;;;;;6.02;47.99;97001.88;8314654;28;20235;-75
2023/01/19 12:58:02;;;;;;;7.77;6.33;;;;;;;6.11;47.61;97008.34;8314479;28;23716;-74
2023/01/19 13:02:36;;;;;;;5.87;4.13;;;;;;;6.20;47.17;97000.25;8314091;28;20230;-74
2023/01/19 13:07:09;;;;;;;3.37;3.07;;;;;;;5.96;46.85;97000.38;8314616;28;20400;-74
2023/01/19 13:11:18;;;;;;;7.70;5.50;;;;;;;5.66;47.57;96938.22;8314154;28;20286;-74
2023/01/19 13:15:29;;;;;;;4.67;4.23;;;;;;;6.05;47.66;96981.16;8314292;28;20537;-74
2023/01/19 13:20:17;;;;;;;5.57;4.53;;;;;;;6.09;47.87;96987.84;8314244;28;20230;-74
2023/01/19 13:25:11;;;;;;;5.27;4.47;;;;;;;6.26;47.37;96994.84;8473144;27;1275661;-75
2023/01/19 13:29:19;;;;;;;4.67;4.10;;;;;;;6.18;47.38;96990.03;8525069;27;20213;-75
2023/01/19 13:33:24;;;;;;;5.20;4.33;;;;;;;5.88;47.61;96974.09;8542962;27;20229;-74
2023/01/19 13:37:30;;;;;;;5.17;4.53;;;;;;;6.07;47.41;96995.63;8542498;27;20221;-75
2023/01/19 13:41:37;;;;;;;4.73;4.23;;;;;;;6.13;47.80;96994.53;8542677;27;20409;-75
2023/01/19 13:45:40;;;;;;;5.00;4.50;;;;;;;5.81;47.75;96976.13;8542769;27;20217;-75
2023/01/19 13:49:45;;;;;;;5.20;4.40;;;;;;;5.93;47.80;96986.78;8541881;27;20266;-76
2023/01/19 13:53:54;;;;;;;4.97;4.57;;;;;;;6.03;47.97;97001.78;8542402;27;20445;-76
2023/01/19 13:57:58;;;;;;;6.40;5.33;;;;;;;5.60;48.62;97011.22;8542039;27;20225;-74
2023/01/19 14:02:07;;;;;;;5.43;4.93;;;;;;;5.72;48.35;97003.91;8542013;27;20549;-75
2023/01/19 14:06:22;;;;;;;6.40;5.50;;;;;;;5.88;47.92;97008.38;8541736;27;20282;-73
2023/01/19 14:10:25;;;;;;;5.80;5.30;;;;;;;5.87;48.04;97005.88;8541555;27;20555;-74
2023/01/19 14:14:29;;;;;;;7.13;5.43;;;;;;;5.74;48.68;97018.34;8541466;27;20421;-73
2023/01/19 14:18:33;;;;;;;7.50;5.73;;;;;;;5.55;48.17;96948.91;8541495;27;20442;-74
2023/01/19 14:22:42;;;;;;;6.63;6.03;;;;;;;6.11;47.97;97016.06;8541207;27;20240;-75
2023/01/19 14:26:47;;;;;;;7.13;6.33;;;;;;;5.93;47.65;97013.31;8540714;27;20218;-76
2023/01/19 14:30:55;;;;;;;6.67;5.27;;;;;;;6.13;48.08;97016.81;8541660;27;20232;-74
2023/01/19 14:35:13;;;;;;;6.43;5.43;;;;;;;5.86;48.34;97004.19;8522772;27;20229;-75
2023/01/19 14:39:22;;;;;;;6.87;5.67;;;;;;;6.17;47.92;97008.06;8517661;27;20386;-74
2023/01/19 14:43:27;;;;;;;9.33;6.13;;;;;;;5.95;47.83;97018.41;8517677;27;20230;-75
2023/01/19 14:47:36;;;;;;;5.97;5.27;;;;;;;5.96;47.97;97018.38;8517554;27;20271;-74
2023/01/19 14:51:38;;;;;;;6.77;5.83;;;;;;;5.90;48.09;97005.72;8517390;27;20237;-74
2023/01/19 14:55:46;;;;;;;6.17;5.30;;;;;;;6.19;47.87;97014.84;8516754;27;20537;-74
2023/01/19 14:59:49;;;;;;;6.53;5.40;;;;;;;5.59;48.26;96963.28;8517243;27;20226;-73
2023/01/19 15:03:55;;;;;;;6.10;5.40;;;;;;;5.49;48.79;97021.91;8518440;27;20423;-74
2023/01/19 15:07:58;;;;;;;6.00;5.40;;;;;;;5.98;48.59;97021.72;8517016;27;20234;-74
2023/01/19 15:12:01;;;;;;;7.77;5.50;;;;;;;5.72;48.99;97015.03;8517004;27;20234;-74
2023/01/19 15:16:04;;;;;;;5.13;4.63;;;;;;;5.98;48.19;97024.28;8516814;27;20502;-74
2023/01/19 15:20:14;;;;;;;5.73;5.23;;;;;;;6.12;47.85;97033.16;8516674;27;20229;-74
2023/01/19 15:24:17;;;;;;;6.27;5.47;;;;;;;5.94;48.54;97027.84;8516219;27;20222;-74
2023/01/19 15:28:20;;;;;;;6.53;5.40;;;;;;;6.03;48.29;97024.09;8516517;27;20541;-74
2023/01/19 15:32:23;;;;;;;6.53;5.30;;;;;;;5.87;48.45;97027.25;8516499;27;20522;-75
2023/01/19 15:36:27;;;;;;;6.97;5.43;;;;;;;5.83;48.74;97032.59;8516147;27;20528;-73
2023/01/19 15:40:31;;;;;;;8.77;5.30;;;;;;;5.64;48.75;97015.31;8516364;27;20229;-74
2023/01/19 15:44:34;;;;;;;7.53;6.20;;;;;;;5.72;48.52;97017.59;8514730;27;20229;-73
2023/01/19 15:48:37;;;;;;;5.90;5.30;;;;;;;5.90;48.11;97026.28;8515773;27;20222;-74
2023/01/19 15:52:42;;;;;;;6.63;5.70;;;;;;;5.82;48.28;97028.31;8516100;27;20218;-76
2023/01/19 15:56:45;;;;;;;7.20;5.77;;;;;;;5.60;48.49;97023.22;8514996;27;20406;-75
2023/01/19 16:00:53;;;;;;;6.70;5.80;;;;;;;5.69;48.59;97043.38;8515428;27;20454;-75
2023/01/19 16:04:56;;;;;;;6.33;5.20;;;;;;;5.66;47.81;97017.84;8514837;27;20516;-74
2023/01/19 16:09:00;;;;;;;5.27;4.57;;;;;;;5.79;47.41;97029.28;8514276;27;20280;-74
2023/01/19 16:13:03;;;;;;;5.77;4.10;;;;;;;5.69;47.61;97030.53;8514789;27;20222;-74
2023/01/19 16:17:06;;;;;;;5.37;4.60;;;;;;;5.55;46.96;96999.44;8513478;27;20226;-74
2023/01/19 16:21:09;;;;;;;5.53;4.70;;;;;;;5.79;47.31;97033.59;8514732;27;20234;-74
2023/01/19 16:25:13;;;;;;;4.43;4.03;;;;;;;5.93;46.90;97038.19;8514685;27;20430;-74
2023/01/19 16:29:16;;;;;;;5.53;4.60;;;;;;;5.84;46.83;97041.94;8514613;27;20218;-73
2023/01/19 16:33:19;;;;;;;7.43;5.63;;;;;;;5.79;46.94;97047.28;8513999;27;20226;-74
2023/01/19 16:37:22;;;;;;;5.47;4.93;;;;;;;5.83;46.90;97041.13;8514322;27;20229;-74
2023/01/19 16:41:26;;;;;;;7.07;4.90;;;;;;;5.77;47.47;97049.09;8514159;27;20522;-74
2023/01/19 16:45:29;;;;;;;5.43;4.87;;;;;;;5.84;46.90;97041.94;8513795;27;20229;-74
2023/01/19 16:49:32;;;;;;;5.30;4.80;;;;;;;5.59;47.43;97047.22;8513569;27;20234;-74
2023/01/19 16:53:35;;;;;;;6.13;4.73;;;;;;;5.86;46.91;97053.84;8513534;27;20574;-74
2023/01/19 16:57:39;;;;;;;5.13;4.30;;;;;;;5.79;47.35;97046.47;8513309;27;20226;-74
2023/01/19 17:01:43;;;;;;;6.07;5.20;;;;;;;5.83;47.19;97045.44;8512830;27;20222;-74
2023/01/19 17:05:49;;;;;;;6.57;5.97;;;;;;;5.62;48.03;97047.13;8512922;27;20295;-74
2023/01/19 17:09:52;;;;;;;7.03;5.50;;;;;;;5.84;47.36;97052.22;8513271;27;20226;-74
2023/01/19 17:13:59;;;;;;;5.30;4.80;;;;;;;5.58;46.95;97043.81;8512722;27;20234;-74
2023/01/19 17:18:02;;;;;;;6.07;5.00;;;;;;;5.61;47.56;97060.84;8513221;27;20237;-74
2023/01/19 17:22:04;;;;;;;5.53;5.00;;;;;;;5.85;47.82;97065.03;8512949;27;20225;-72
2023/01/19 17:26:07;;;;;;;5.97;4.80;;;;;;;5.83;47.58;97068.56;8512995;27;20221;-73
2023/01/19 17:30:13;;;;;;;7.53;5.57;;;;;;;5.73;48.36;97068.09;8512957;27;20222;-72
2023/01/19 17:34:16;;;;;;;8.20;6.07;;;;;;;5.81;48.33;97065.22;8512768;27;20226;-73
2023/01/19 17:38:19;;;;;;;10.33;7.53;;;;;;;5.76;48.33;97067.94;8513046;27;20229;-72
2023/01/19 17:42:23;;;;;;;9.13;7.43;;;;;;;5.79;48.39;97067.84;8513087;27;20230;-73
2023/01/19 17:46:28;;;;;;;9.63;7.70;;;;;;;5.45;48.46;97050.34;8512805;27;20222;-71
2023/01/19 17:50:33;;;;;;;8.77;7.17;;;;;;;5.67;48.20;97037.47;8512888;27;20221;-73
2023/01/19 17:54:36;;;;;;;9.07;7.57;;;;;;;5.69;48.31;97063.94;8512919;27;20229;-73
2023/01/19 17:58:39;;;;;;;7.67;6.57;;;;;;;5.78;48.19;97071.28;8512651;27;20222;-73
2023/01/19 18:02:43;;;;;;;6.70;5.97;;;;;;;5.83;48.34;97082.22;8511786;27;20237;-74
2023/01/19 18:06:47;;;;;;;7.00;6.30;;;;;;;5.58;48.63;97079.78;8512185;27;20452;-74
2023/01/19 18:10:54;;;;;;;6.67;5.43;;;;;;;5.74;48.45;97084.34;8518136;27;20421;-74
2023/01/19 18:14:57;;;;;;;7.17;5.60;;;;;;;5.79;48.41;97085.81;8518700;27;20259;-73
2023/01/19 18:19:01;;;;;;;6.87;5.90;;;;;;;5.62;49.25;97091.63;8518624;27;20226;-72
2023/01/19 18:23:04;;;;;;;8.10;6.30;;;;;;;5.76;48.84;97085.94;8518261;27;20226;-71
2023/01/19 18:27:07;;;;;;;6.73;5.80;;;;;;;5.82;48.62;97090.81;8518257;27;20229;-72
2023/01/19 18:31:10;;;;;;;5.77;5.20;;;;;;;5.62;48.87;97075.38;8518173;27;20513;-72
2023/01/19 18:35:15;;;;;;;8.40;6.10;;;;;;;5.68;49.28;97085.41;8517933;27;20403;-73
2023/01/19 18:39:17;;;;;;;8.73;6.10;;;;;;;5.77;49.20;97092.75;8517928;27;20226;-72
2023/01/19 18:43:20;;;;;;;8.80;5.60;;;;;;;5.79;49.15;97093.53;8517637;27;20526;-72
2023/01/19 18:47:23;;;;;;;7.33;5.77;;;;;;;5.80;49.44;97097.75;8517428;27;20218;-72
2023/01/19 18:51:28;;;;;;;6.47;5.63;;;;;;;5.79;49.17;97100.41;8517675;27;20225;-72
2023/01/19 18:55:31;;;;;;;6.80;6.10;;;;;;;5.45;49.72;97094.81;8517640;27;20226;-72
2023/01/19 18:59:34;;;;;;;7.97;5.83;;;;;;;5.66;49.73;97106.00;8517177;27;20222;-71
2023/01/19 19:03:37;;;;;;;7.63;6.93;;;;;;;5.85;49.39;97100.16;8517010;27;20242;-74
2023/01/19 19:07:41;;;;;;;10.27;7.90;;;;;;;5.85;49.33;97102.72;8516721;27;20400;-74
2023/01/19 19:11:44;;;;;;;69.93;37.97;;;;;;;8.55;76.99;97107.16;8516107;27;20219;-76
2023/01/19 19:15:46;;;;;;;19.40;11.63;;;;;;;9.21;54.81;97093.44;8516649;27;20424;-75
2023/01/19 19:19:49;;;;;;;8.17;7.37;;;;;;;7.84;48.01;97100.22;8516080;27;20550;-73
2023/01/19 19:23:55;;;;;;;7.83;6.97;;;;;;;7.14;47.45;97092.25;8517126;27;20245;-74
2023/01/19 19:27:58;;;;;;;7.77;6.97;;;;;;;6.83;47.53;97097.88;8516698;27;20226;-74
2023/01/19 19:32:00;;;;;;;7.97;7.17;;;;;;;6.25;48.64;97094.28;8516190;27;20225;-74